Kuzey Ekim — TCA3365 — position and weather

sailwx.info

Track history (hours):
 
Tides and Currents Weather Stations Pressure Air Temp Water Temp Dewpoint Dewpoint Depression Visibility Wind Speed Wind Dir Waves Ship Positions

Kuzey Ekim

Last reported at 2017-Dec-14 13:04 UTC. Time now 2017-Dec-15 11:58 UTC.
Position N 40°46' E 029°40'.

Length 150 m; draft 6 m.

Type: Tanker. MMSI: 271044024.

Date/timePositionNaut miles runAvg speedWind from/ knotsBaromVisibWave heightAir tempDewpointWater temp
2017-Dec-14 13:04N 40°46' E 029°40'0 0.5
2017-Dec-14 12:08N 40°46' E 029°39'2 7.5
2017-Dec-14 11:55N 40°45' E 029°38'410.7
2017-Dec-14 11:30N 40°45' E 029°32'611.3
2017-Dec-14 11:00N 40°44' E 029°24'5 9.2
2017-Dec-14 10:30N 40°43' E 029°18'611.1
2017-Dec-14 10:00N 40°43' E 029°11'611.9
2017-Dec-14 09:30N 40°44' E 029°03'612.4
2017-Dec-14 09:00N 40°43' E 028°55'  
2017-Dec-10 00:45N 40°44' E 028°52'3 9.8
2017-Dec-10 00:28N 40°44' E 028°56'5 9.8
2017-Dec-10 00:00N 40°44' E 029°02'510.3
2017-Dec-09 23:29N 40°44' E 029°09'510.5
2017-Dec-09 22:59N 40°44' E 029°16'5 9.9
2017-Dec-09 22:30N 40°44' E 029°22'5 9.6
2017-Dec-09 22:00N 40°45' E 029°29'510.0
2017-Dec-09 21:29N 40°45' E 029°35'  
Track history (hours):
 
Tides and Currents Weather Stations Pressure Air Temp Water Temp Dewpoint Dewpoint Depression Visibility Wind Speed Wind Dir Waves Ship Positions

Kuzey Ekim

Last reported at 2017-Dec-14 13:04 UTC. Time now 2017-Dec-15 11:58 UTC.
Position N 40°46' E 029°40'.

Length 150 m; draft 6 m.

Type: Tanker. MMSI: 271044024.

Date/timePositionNaut miles runAvg speedWind from/ knotsBaromVisibWave heightAir tempDewpointWater temp
2017-Dec-14 13:04N 40°46' E 029°40'0 0.5
2017-Dec-14 12:08N 40°46' E 029°39'2 7.5
2017-Dec-14 11:55N 40°45' E 029°38'410.7
2017-Dec-14 11:30N 40°45' E 029°32'611.3
2017-Dec-14 11:00N 40°44' E 029°24'5 9.2
2017-Dec-14 10:30N 40°43' E 029°18'611.1
2017-Dec-14 10:00N 40°43' E 029°11'611.9
2017-Dec-14 09:30N 40°44' E 029°03'612.4
2017-Dec-14 09:00N 40°43' E 028°55'  
2017-Dec-10 00:45N 40°44' E 028°52'3 9.8
2017-Dec-10 00:28N 40°44' E 028°56'5 9.8
2017-Dec-10 00:00N 40°44' E 029°02'510.3
2017-Dec-09 23:29N 40°44' E 029°09'510.5
2017-Dec-09 22:59N 40°44' E 029°16'5 9.9
2017-Dec-09 22:30N 40°44' E 029°22'5 9.6
2017-Dec-09 22:00N 40°45' E 029°29'510.0
2017-Dec-09 21:29N 40°45' E 029°35'  

Dump ship's entire track history